Time;durP1;ratioP1;P1;durP2;ratioP2;P2;SDS_P1;SDS_P2;PMS_P1;PMS_P2;Temp;Humidity;BMP_temperature;BMP_pressure;BME280_temperature;BME280_humidity;BME280_pressure;Samples;Min_cycle;Max_cycle;Signal;HPM_P1;HPM_P2
2022/11/18 00:01:15;;;;;;;9.07;4.87;;;;;;;;;;5042229;28;20039;-70
2022/11/18 00:03:41;;;;;;;8.43;4.90;;;;;;;;;;5042058;28;20039;-71
2022/11/18 00:06:09;;;;;;;6.67;4.20;;;;;;;;;;5041802;28;20039;-71
2022/11/18 00:08:38;;;;;;;7.77;4.30;;;;;;;;;;5058879;28;20051;-71
2022/11/18 00:11:07;;;;;;;7.13;4.07;;;;;;;;;;5058637;28;20036;-71
2022/11/18 00:16:20;;;;;;;5.17;3.60;;;;;;;;;;5058375;28;20032;-71
2022/11/18 00:18:45;;;;;;;8.53;3.90;;;;;;;;;;5041403;28;20032;-72
2022/11/18 00:21:11;;;;;;;8.33;4.43;;;;;;;;;;5041487;28;20127;-71
2022/11/18 00:23:37;;;;;;;8.00;4.30;;;;;;;;;;5041499;28;20043;-71
2022/11/18 00:26:07;;;;;;;6.97;4.07;;;;;;;;;;5074968;28;20036;-71
2022/11/18 00:28:33;;;;;;;10.70;4.05;;;;;;;;;;5041606;28;20048;-71
2022/11/18 00:30:59;;;;;;;7.57;3.90;;;;;;;;;;5041321;28;20394;-71
2022/11/18 00:33:25;;;;;;;8.93;4.40;;;;;;;;;;5058244;28;20468;-70
2022/11/18 00:35:54;;;;;;;7.43;3.97;;;;;;;;;;5057928;28;20036;-71
2022/11/18 00:38:19;;;;;;;9.10;4.50;;;;;;;;;;5074672;28;20486;-70
2022/11/18 00:40:45;;;;;;;9.23;4.00;;;;;;;;;;5041539;28;20118;-70
2022/11/18 00:43:11;;;;;;;7.37;4.03;;;;;;;;;;5041489;28;20044;-71
2022/11/18 00:45:36;;;;;;;6.13;4.10;;;;;;;;;;5041616;28;20028;-70
2022/11/18 00:48:02;;;;;;;8.10;4.40;;;;;;;;;;5041261;28;20044;-71
2022/11/18 00:50:27;;;;;;;8.10;4.23;;;;;;;;;;5041288;28;20036;-71
2022/11/18 00:52:53;;;;;;;8.70;4.43;;;;;;;;;;5041210;28;20526;-71
2022/11/18 00:55:19;;;;;;;7.40;4.53;;;;;;;;;;5041606;28;20036;-70
2022/11/18 00:57:44;;;;;;;6.23;3.60;;;;;;;;;;5037681;28;20133;-69
2022/11/18 01:00:10;;;;;;;7.87;4.43;;;;;;;;;;5054409;28;20491;-71
2022/11/18 01:02:36;;;;;;;7.63;4.13;;;;;;;;;;5037662;28;20440;-71
2022/11/18 01:05:02;;;;;;;7.33;3.43;;;;;;;;;;5037779;28;20464;-71
2022/11/18 01:07:28;;;;;;;6.50;3.90;;;;;;;;;;5054603;28;20087;-71
2022/11/18 01:09:56;;;;;;;7.87;3.87;;;;;;;;;;5070944;28;20047;-70
2022/11/18 01:15:06;;;;;;;6.90;4.23;;;;;;;;;;5054254;28;20048;-71
2022/11/18 01:17:31;;;;;;;6.77;3.70;;;;;;;;;;5054257;28;20455;-70
2022/11/18 01:19:57;;;;;;;6.10;4.00;;;;;;;;;;5054286;28;20045;-70
2022/11/18 01:22:22;;;;;;;6.63;4.13;;;;;;;;;;5037725;28;20382;-71
2022/11/18 01:24:48;;;;;;;10.43;4.13;;;;;;;;;;5054644;28;20182;-71
2022/11/18 01:27:14;;;;;;;6.37;4.20;;;;;;;;;;5054237;28;20047;-70
2022/11/18 01:29:40;;;;;;;7.17;3.87;;;;;;;;;;5039616;28;20044;-70
2022/11/18 01:32:05;;;;;;;7.20;3.87;;;;;;;;;;5058875;28;20041;-70
2022/11/18 01:34:31;;;;;;;6.80;4.00;;;;;;;;;;5058509;28;20032;-70
2022/11/18 01:36:57;;;;;;;8.47;4.33;;;;;;;;;;5041406;28;20029;-70
2022/11/18 01:39:23;;;;;;;6.77;4.13;;;;;;;;;;5041340;28;20048;-73
2022/11/18 01:41:48;;;;;;;5.50;3.53;;;;;;;;;;5058155;28;20058;-70
2022/11/18 01:44:46;;;;;;;9.27;4.00;;;;;;;;;;5057973;28;20086;-70
2022/11/18 01:47:12;;;;;;;12.30;4.60;;;;;;;;;;5041262;28;20041;-70
2022/11/18 01:49:38;;;;;;;7.43;4.07;;;;;;;;;;5057855;28;20101;-70
2022/11/18 01:52:03;;;;;;;7.23;3.73;;;;;;;;;;5041310;28;20040;-70
2022/11/18 01:54:34;;;;;;;8.10;3.77;;;;;;;;;;5074307;28;20040;-71
2022/11/18 01:57:02;;;;;;;9.98;4.18;;;;;;;;;;5041071;28;20060;-70
2022/11/18 01:59:33;;;;;;;7.30;4.07;;;;;;;;;;5057853;28;20127;-70
2022/11/18 02:02:01;;;;;;;6.90;3.90;;;;;;;;;;5041017;28;20135;-71
2022/11/18 02:04:27;;;;;;;6.20;4.10;;;;;;;;;;5057671;28;20072;-73
2022/11/18 02:06:53;;;;;;;6.40;3.70;;;;;;;;;;5057746;28;20075;-73
2022/11/18 02:09:19;;;;;;;6.27;3.60;;;;;;;;;;5074162;28;20040;-72
2022/11/18 02:11:55;;;;;;;6.27;3.70;;;;;;;;;;5057420;28;20176;-73
2022/11/18 02:14:23;;;;;;;6.77;3.83;;;;;;;;;;5040997;28;20352;-72
2022/11/18 02:16:52;;;;;;;6.43;4.03;;;;;;;;;;5057635;28;20036;-71
2022/11/18 02:19:27;;;;;;;6.93;3.93;;;;;;;;;;5057259;28;20077;-71
2022/11/18 02:21:56;;;;;;;6.47;3.60;;;;;;;;;;5057482;28;20110;-71
2022/11/18 02:24:34;;;;;;;5.57;3.73;;;;;;;;;;5040884;28;20032;-71
2022/11/18 02:26:59;;;;;;;7.63;4.10;;;;;;;;;;5040681;28;20133;-70
2022/11/18 02:29:25;;;;;;;6.57;3.87;;;;;;;;;;5057528;28;20137;-70
2022/11/18 02:31:51;;;;;;;6.83;4.00;;;;;;;;;;5040694;28;20034;-71
2022/11/18 02:34:34;;;;;;;5.57;3.60;;;;;;;;;;5040233;28;20143;-70
2022/11/18 02:37:06;;;;;;;6.83;3.70;;;;;;;;;;5040426;28;20044;-70
2022/11/18 02:39:53;;;;;;;4.73;3.60;;;;;;;;;;5073555;28;20039;-71
2022/11/18 02:42:19;;;;;;;7.10;3.50;;;;;;;;;;5039188;28;20451;-70
2022/11/18 02:44:47;;;;;;;6.60;3.90;;;;;;;;;;5073617;28;20028;-70
2022/11/18 02:47:14;;;;;;;7.90;4.10;;;;;;;;;;5056511;28;20055;-70
2022/11/18 02:49:47;;;;;;;5.63;3.70;;;;;;;;;;5039985;28;20459;-71
2022/11/18 02:52:14;;;;;;;10.80;4.07;;;;;;;;;;5073279;28;20051;-71
2022/11/18 02:54:41;;;;;;;6.20;3.40;;;;;;;;;;5073100;28;20036;-71
2022/11/18 02:57:07;;;;;;;6.47;3.43;;;;;;;;;;5039973;28;20064;-70
2022/11/18 02:59:33;;;;;;;8.23;4.23;;;;;;;;;;5039827;28;20041;-72
2022/11/18 03:01:58;;;;;;;6.77;3.77;;;;;;;;;;5039821;28;20033;-71
2022/11/18 03:04:24;;;;;;;8.80;3.90;;;;;;;;;;5039981;28;20381;-72
2022/11/18 03:06:53;;;;;;;7.23;3.80;;;;;;;;;;5056175;28;20566;-72
2022/11/18 03:09:19;;;;;;;7.30;3.77;;;;;;;;;;5039393;28;20478;-72
2022/11/18 03:11:47;;;;;;;4.63;3.57;;;;;;;;;;5039435;28;20036;-72
2022/11/18 03:14:23;;;;;;;5.83;3.53;;;;;;;;;;5039287;28;20072;-72
2022/11/18 03:16:58;;;;;;;6.20;4.13;;;;;;;;;;5039151;28;20386;-72
2022/11/18 03:19:28;;;;;;;5.63;3.40;;;;;;;;;;5055883;28;20067;-72
2022/11/18 03:22:09;;;;;;;6.82;3.75;;;;;;;;;;5039300;28;20033;-72
2022/11/18 03:24:38;;;;;;;6.13;3.70;;;;;;;;;;5038985;28;20482;-72
2022/11/18 03:27:11;;;;;;;14.17;3.90;;;;;;;;;;5055491;28;20142;-72
2022/11/18 03:29:40;;;;;;;6.53;4.10;;;;;;;;;;5055513;28;20470;-72
2022/11/18 03:32:09;;;;;;;7.10;3.93;;;;;;;;;;5055131;28;20063;-73
2022/11/18 03:34:34;;;;;;;6.70;3.73;;;;;;;;;;5054470;28;20036;-74
2022/11/18 03:37:02;;;;;;;7.83;4.00;;;;;;;;;;5038151;28;20144;-70
2022/11/18 03:39:30;;;;;;;5.77;3.87;;;;;;;;;;5039140;28;20032;-71
2022/11/18 03:42:05;;;;;;;5.90;3.83;;;;;;;;;;5073345;28;20119;-70
2022/11/18 03:44:35;;;;;;;7.97;3.90;;;;;;;;;;5055323;28;20032;-70
2022/11/18 03:47:23;;;;;;;8.27;4.80;;;;;;;;;;5038763;28;20071;-72
2022/11/18 03:49:54;;;;;;;9.60;3.67;;;;;;;;;;5030331;28;20064;-70
2022/11/18 03:52:20;;;;;;;;;;;;;;;;;;5055576;28;20852;-70
2022/11/18 03:54:50;;;;;;;8.90;4.07;;;;;;;;;;5038434;28;19908;-69
2022/11/18 03:57:21;;;;;;;5.47;3.40;;;;;;;;;;5071424;28;20091;-69
2022/11/18 03:59:50;;;;;;;6.00;4.07;;;;;;;;;;5038566;28;20091;-70
2022/11/18 04:02:20;;;;;;;8.23;3.57;;;;;;;;;;5054941;28;20032;-71
2022/11/18 04:04:47;;;;;;;7.13;3.90;;;;;;;;;;5072566;28;20032;-70
2022/11/18 04:07:15;;;;;;;7.50;3.40;;;;;;;;;;5038084;28;20056;-71
2022/11/18 04:09:43;;;;;;;7.80;4.50;;;;;;;;;;5054740;28;20040;-70
2022/11/18 04:12:12;;;;;;;5.90;3.77;;;;;;;;;;5071465;28;20115;-71
2022/11/18 04:14:39;;;;;;;8.93;4.10;;;;;;;;;;5038109;28;20040;-72
2022/11/18 04:17:20;;;;;;;6.60;4.17;;;;;;;;;;5038096;28;20039;-72
2022/11/18 04:19:46;;;;;;;10.00;4.10;;;;;;;;;;5070506;28;20434;-72
2022/11/18 04:22:12;;;;;;;6.03;3.90;;;;;;;;;;5057840;28;20139;-72
2022/11/18 04:24:38;;;;;;;5.40;4.13;;;;;;;;;;5091667;28;20135;-65
2022/11/18 04:27:04;;;;;;;6.30;3.80;;;;;;;;;;5074481;28;20131;-65
2022/11/18 04:29:30;;;;;;;5.63;3.63;;;;;;;;;;5086672;28;20046;-66
2022/11/18 04:31:55;;;;;;;8.40;4.33;;;;;;;;;;5069917;28;20441;-66
2022/11/18 04:34:21;;;;;;;5.60;3.93;;;;;;;;;;5070103;28;20028;-66
2022/11/18 04:36:47;;;;;;;5.50;3.80;;;;;;;;;;5037188;28;20028;-65
2022/11/18 04:39:12;;;;;;;7.70;4.27;;;;;;;;;;5069888;28;20032;-66
2022/11/18 04:41:56;;;;;;;8.03;3.80;;;;;;;;;;5069624;28;20064;-66
2022/11/18 04:44:32;;;;;;;9.43;4.43;;;;;;;;;;5053328;28;20815;-66
2022/11/18 04:47:02;;;;;;;8.27;4.70;;;;;;;;;;5071669;28;20053;-67
2022/11/18 04:49:29;;;;;;;7.95;4.05;;;;;;;;;;5072347;28;20040;-65
2022/11/18 04:51:55;;;;;;;7.17;3.97;;;;;;;;;;5036644;28;20098;-65
2022/11/18 04:54:22;;;;;;;7.13;4.37;;;;;;;;;;5070580;28;20090;-64
2022/11/18 04:56:48;;;;;;;5.63;3.87;;;;;;;;;;5071531;28;20524;-64
2022/11/18 04:59:15;;;;;;;7.67;4.30;;;;;;;;;;5054249;28;20036;-65
2022/11/18 05:01:40;;;;;;;6.80;3.63;;;;;;;;;;5075390;28;20066;-67
2022/11/18 05:04:06;;;;;;;8.00;4.63;;;;;;;;;;5071833;28;20071;-65
2022/11/18 05:06:32;;;;;;;7.80;4.33;;;;;;;;;;5071337;28;20431;-69
2022/11/18 05:08:58;;;;;;;10.10;3.80;;;;;;;;;;5056461;28;20070;-66
2022/11/18 05:14:08;;;;;;;8.37;4.20;;;;;;;;;;5072389;28;20067;-66
2022/11/18 05:16:34;;;;;;;7.53;4.40;;;;;;;;;;5072018;28;20043;-66
2022/11/18 05:19:00;;;;;;;5.73;4.03;;;;;;;;;;5056541;28;20059;-66
2022/11/18 05:21:26;;;;;;;6.37;3.67;;;;;;;;;;5056406;28;20451;-66
2022/11/18 05:23:51;;;;;;;7.03;3.80;;;;;;;;;;5073183;28;20119;-66
2022/11/18 05:26:17;;;;;;;5.77;4.07;;;;;;;;;;5056909;28;20070;-67
2022/11/18 05:28:42;;;;;;;5.87;3.63;;;;;;;;;;5056418;28;20079;-66
2022/11/18 05:31:09;;;;;;;5.70;3.93;;;;;;;;;;5056565;28;20488;-66
2022/11/18 05:33:34;;;;;;;6.17;3.70;;;;;;;;;;5090679;28;20078;-66
2022/11/18 05:36:07;;;;;;;7.93;3.40;;;;;;;;;;5056485;28;20056;-66
2022/11/18 05:38:33;;;;;;;5.97;3.87;;;;;;;;;;5090235;28;20058;-67
2022/11/18 05:40:59;;;;;;;9.10;4.17;;;;;;;;;;5056625;28;20470;-66
2022/11/18 05:43:24;;;;;;;6.33;3.83;;;;;;;;;;5072924;28;20036;-66
2022/11/18 05:45:50;;;;;;;8.60;4.00;;;;;;;;;;5056186;28;20032;-66
2022/11/18 05:48:19;;;;;;;6.40;4.20;;;;;;;;;;5073370;28;20048;-66
2022/11/18 05:50:45;;;;;;;6.63;4.13;;;;;;;;;;5056302;28;20358;-66
2022/11/18 05:53:11;;;;;;;6.07;3.83;;;;;;;;;;5073019;28;20032;-66
2022/11/18 05:55:39;;;;;;;8.63;4.30;;;;;;;;;;5056248;28;20438;-66
2022/11/18 05:58:05;;;;;;;9.77;3.77;;;;;;;;;;5056215;28;20082;-67
2022/11/18 06:00:31;;;;;;;7.13;3.83;;;;;;;;;;5073271;28;20064;-66
2022/11/18 06:02:57;;;;;;;6.70;4.30;;;;;;;;;;5072589;28;20108;-67
2022/11/18 06:05:26;;;;;;;8.77;3.87;;;;;;;;;;5056245;28;20040;-66
2022/11/18 06:07:52;;;;;;;5.27;3.73;;;;;;;;;;5056418;28;20101;-66
2022/11/18 06:10:21;;;;;;;8.50;3.93;;;;;;;;;;5056145;28;20040;-66
2022/11/18 06:12:48;;;;;;;7.03;3.83;;;;;;;;;;5055271;28;20055;-66
2022/11/18 06:15:19;;;;;;;5.60;3.80;;;;;;;;;;5055062;28;20047;-66
2022/11/18 06:17:51;;;;;;;10.33;5.60;;;;;;;;;;5059250;28;20405;-65
2022/11/18 06:20:18;;;;;;;11.60;5.80;;;;;;;;;;5059565;28;20435;-65
2022/11/18 06:22:44;;;;;;;6.77;4.23;;;;;;;;;;5093606;28;20101;-66
2022/11/18 06:25:10;;;;;;;7.53;3.80;;;;;;;;;;5059953;28;20035;-66
2022/11/18 06:27:36;;;;;;;5.40;3.70;;;;;;;;;;5059518;28;20470;-66
2022/11/18 06:30:01;;;;;;;9.77;3.90;;;;;;;;;;5059594;28;20040;-66
2022/11/18 06:32:29;;;;;;;7.93;4.13;;;;;;;;;;5059888;28;20039;-66
2022/11/18 06:34:54;;;;;;;6.17;3.73;;;;;;;;;;5059509;28;20028;-66
2022/11/18 06:37:20;;;;;;;5.57;3.93;;;;;;;;;;5059369;28;20032;-66
2022/11/18 06:39:46;;;;;;;9.13;4.50;;;;;;;;;;5059472;28;20038;-66
2022/11/18 06:43:37;;;;;;;7.70;4.13;;;;;;;;;;5075986;28;20113;-66
2022/11/18 06:44:57;;;;;;;8.83;4.37;;;;;;;;;;5075800;28;20032;-66
2022/11/18 06:47:22;;;;;;;11.53;4.40;;;;;;;;;;5075678;28;20062;-67
2022/11/18 06:49:48;;;;;;;6.63;4.17;;;;;;;;;;5092718;28;20062;-66
2022/11/18 06:52:13;;;;;;;8.33;4.70;;;;;;;;;;5058875;28;20055;-66
2022/11/18 06:54:39;;;;;;;7.43;4.83;;;;;;;;;;5075920;28;20118;-66
2022/11/18 06:57:05;;;;;;;7.40;4.27;;;;;;;;;;5059209;28;20059;-66
2022/11/18 06:59:31;;;;;;;6.43;3.90;;;;;;;;;;5058998;28;20478;-66
2022/11/18 07:01:56;;;;;;;7.83;4.30;;;;;;;;;;5058776;28;20051;-65
2022/11/18 07:04:22;;;;;;;7.07;4.20;;;;;;;;;;5058766;28;20040;-66
2022/11/18 07:06:48;;;;;;;7.03;4.67;;;;;;;;;;5075833;28;20028;-68
2022/11/18 07:09:14;;;;;;;9.57;4.37;;;;;;;;;;5058878;28;20788;-68
2022/11/18 07:11:40;;;;;;;7.57;4.07;;;;;;;;;;5058059;28;20105;-65
2022/11/18 07:14:07;;;;;;;8.03;4.00;;;;;;;;;;5075782;28;20044;-66
2022/11/18 07:16:32;;;;;;;8.47;3.87;;;;;;;;;;5058771;28;20074;-66
2022/11/18 07:18:58;;;;;;;12.03;4.57;;;;;;;;;;5075692;28;20056;-67
2022/11/18 07:21:25;;;;;;;6.40;3.93;;;;;;;;;;5058655;28;20067;-65
2022/11/18 07:23:51;;;;;;;8.83;4.37;;;;;;;;;;5074889;28;20028;-66
2022/11/18 07:26:18;;;;;;;7.87;4.50;;;;;;;;;;5075316;28;20031;-65
2022/11/18 07:28:43;;;;;;;11.70;5.33;;;;;;;;;;5074874;28;20101;-65
2022/11/18 07:31:13;;;;;;;7.30;4.23;;;;;;;;;;5075019;28;20032;-66
2022/11/18 07:33:39;;;;;;;6.40;3.87;;;;;;;;;;5058218;28;20047;-66
2022/11/18 07:36:15;;;;;;;10.13;3.93;;;;;;;;;;5058705;28;20028;-65
2022/11/18 07:38:41;;;;;;;7.10;3.90;;;;;;;;;;5074695;28;20088;-65
2022/11/18 07:41:15;;;;;;;8.27;4.30;;;;;;;;;;5058298;28;20032;-69
2022/11/18 07:43:40;;;;;;;9.00;4.03;;;;;;;;;;5074589;28;20096;-66
2022/11/18 07:46:14;;;;;;;7.93;3.87;;;;;;;;;;5058144;28;20516;-66
2022/11/18 07:48:40;;;;;;;8.10;4.90;;;;;;;;;;5057510;28;20101;-66
2022/11/18 07:51:06;;;;;;;9.37;5.07;;;;;;;;;;5075120;28;20044;-67
2022/11/18 07:53:32;;;;;;;7.77;4.87;;;;;;;;;;5057868;28;20036;-67
2022/11/18 07:55:57;;;;;;;8.33;4.53;;;;;;;;;;5059442;28;20040;-66
2022/11/18 07:58:23;;;;;;;8.50;4.80;;;;;;;;;;5057067;28;20127;-66
2022/11/18 08:00:49;;;;;;;6.47;4.37;;;;;;;;;;5074078;28;20462;-66
2022/11/18 08:03:14;;;;;;;11.63;4.60;;;;;;;;;;5074224;28;20043;-66
2022/11/18 08:05:40;;;;;;;7.30;4.30;;;;;;;;;;5074180;28;20043;-67
2022/11/18 08:08:06;;;;;;;6.60;4.40;;;;;;;;;;5074060;28;20486;-66
2022/11/18 08:10:31;;;;;;;8.23;4.17;;;;;;;;;;5073950;28;20032;-66
2022/11/18 08:12:57;;;;;;;7.20;4.10;;;;;;;;;;5073505;28;20036;-67
2022/11/18 08:15:23;;;;;;;7.67;4.30;;;;;;;;;;5057352;28;20147;-67
2022/11/18 08:17:49;;;;;;;8.03;4.30;;;;;;;;;;5057705;28;20024;-67
2022/11/18 08:20:14;;;;;;;9.77;4.03;;;;;;;;;;5057685;28;20528;-66
2022/11/18 08:22:40;;;;;;;6.47;4.27;;;;;;;;;;5073914;28;20040;-66
2022/11/18 08:25:06;;;;;;;9.50;4.77;;;;;;;;;;5057681;28;20040;-67
2022/11/18 08:27:32;;;;;;;9.63;4.57;;;;;;;;;;5073893;28;20100;-67
2022/11/18 08:29:57;;;;;;;7.17;4.17;;;;;;;;;;5074983;28;20048;-66
2022/11/18 08:32:23;;;;;;;5.20;4.30;;;;;;;;;;5074209;28;20089;-66
2022/11/18 08:34:49;;;;;;;8.83;4.53;;;;;;;;;;5057237;28;20040;-67
2022/11/18 08:37:15;;;;;;;11.23;4.83;;;;;;;;;;5091080;28;20039;-66
2022/11/18 08:39:41;;;;;;;12.00;5.37;;;;;;;;;;5056659;28;20036;-67
2022/11/18 08:42:07;;;;;;;11.20;5.30;;;;;;;;;;5057181;28;20028;-67
2022/11/18 08:44:33;;;;;;;9.77;4.93;;;;;;;;;;5073727;28;20130;-66
2022/11/18 08:46:59;;;;;;;9.33;4.97;;;;;;;;;;5073785;28;20131;-66
2022/11/18 08:49:25;;;;;;;11.70;4.93;;;;;;;;;;5073623;28;20062;-67
2022/11/18 08:51:50;;;;;;;9.47;4.93;;;;;;;;;;5056683;28;20454;-66
2022/11/18 08:54:16;;;;;;;8.70;4.80;;;;;;;;;;5056713;28;20833;-66
2022/11/18 08:56:41;;;;;;;13.40;6.93;;;;;;;;;;5073259;28;20055;-66
2022/11/18 08:59:22;;;;;;;7.25;4.78;;;;;;;;;;5074570;28;20048;-65
2022/11/18 09:01:48;;;;;;;7.80;4.93;;;;;;;;;;5073520;28;20039;-67
2022/11/18 09:04:14;;;;;;;11.73;5.60;;;;;;;;;;5056917;28;20084;-67
2022/11/18 09:06:40;;;;;;;9.70;4.75;;;;;;;;;;5073296;28;20481;-66
2022/11/18 09:09:07;;;;;;;8.67;5.20;;;;;;;;;;5073606;28;20132;-66
2022/11/18 09:11:33;;;;;;;12.07;5.50;;;;;;;;;;5056231;28;20389;-66
2022/11/18 09:13:59;;;;;;;8.07;4.97;;;;;;;;;;5055096;28;20057;-66
2022/11/18 09:16:25;;;;;;;5.90;4.00;;;;;;;;;;5051583;28;20042;-66
2022/11/18 09:18:51;;;;;;;8.07;4.40;;;;;;;;;;5078351;28;20074;-67
2022/11/18 09:21:17;;;;;;;10.47;5.03;;;;;;;;;;5049048;28;20051;-65
2022/11/18 09:23:43;;;;;;;8.97;4.30;;;;;;;;;;5070622;28;20028;-65
2022/11/18 09:26:10;;;;;;;9.27;4.87;;;;;;;;;;5060190;28;20066;-65
2022/11/18 09:28:36;;;;;;;9.37;5.33;;;;;;;;;;5076633;28;20048;-65
2022/11/18 09:31:06;;;;;;;10.67;4.97;;;;;;;;;;5054293;28;20084;-65
2022/11/18 09:33:33;;;;;;;8.80;4.75;;;;;;;;;;5080313;28;20063;-66
2022/11/18 09:36:03;;;;;;;13.67;4.67;;;;;;;;;;5049804;28;20028;-66
2022/11/18 09:38:29;;;;;;;6.67;4.53;;;;;;;;;;5047340;28;20032;-66
2022/11/18 09:41:05;;;;;;;8.83;4.67;;;;;;;;;;5049196;28;20024;-65
2022/11/18 09:43:40;;;;;;;8.87;4.20;;;;;;;;;;5049722;28;20050;-65
2022/11/18 09:46:20;;;;;;;11.67;5.13;;;;;;;;;;5066390;28;20135;-66
2022/11/18 09:51:35;;;;;;;9.37;5.03;;;;;;;;;;5069286;28;20485;-68
2022/11/18 09:54:00;;;;;;;8.57;4.20;;;;;;;;;;5059550;28;20086;-66
2022/11/18 09:56:27;;;;;;;6.93;4.33;;;;;;;;;;5047478;28;20056;-67
2022/11/18 09:58:52;;;;;;;8.63;4.77;;;;;;;;;;5049644;28;20068;-67
2022/11/18 10:01:19;;;;;;;9.63;4.77;;;;;;;;;;5048898;28;20131;-66
2022/11/18 10:03:44;;;;;;;10.90;4.87;;;;;;;;;;5048004;28;20046;-66
2022/11/18 10:06:28;;;;;;;10.83;5.27;;;;;;;;;;5049492;28;20028;-66
2022/11/18 10:08:59;;;;;;;10.37;5.67;;;;;;;;;;5067057;28;20064;-65
2022/11/18 10:11:28;;;;;;;6.93;4.63;;;;;;;;;;5046905;28;20036;-66
2022/11/18 10:13:58;;;;;;;11.37;5.13;;;;;;;;;;5048924;28;20058;-67
2022/11/18 10:16:30;;;;;;;11.57;4.80;;;;;;;;;;5063069;28;20090;-65
2022/11/18 10:19:15;;;;;;;12.47;6.13;;;;;;;;;;5039494;28;20048;-65
2022/11/18 10:22:00;;;;;;;13.73;5.00;;;;;;;;;;5012738;28;20463;-65
2022/11/18 10:24:29;;;;;;;9.00;5.07;;;;;;;;;;5054346;28;20511;-64
2022/11/18 10:26:55;;;;;;;9.47;4.50;;;;;;;;;;5054702;28;20563;-65
2022/11/18 10:29:22;;;;;;;11.43;4.37;;;;;;;;;;5054817;28;20488;-65
2022/11/18 10:32:07;;;;;;;10.30;4.37;;;;;;;;;;5054299;28;20489;-65
2022/11/18 10:34:34;;;;;;;11.27;4.80;;;;;;;;;;5087271;28;20040;-66
2022/11/18 10:37:05;;;;;;;9.30;5.03;;;;;;;;;;5043088;28;20039;-65
2022/11/18 10:39:31;;;;;;;9.25;4.72;;;;;;;;;;5041182;28;20835;-65
2022/11/18 10:42:07;;;;;;;10.80;4.73;;;;;;;;;;5041174;28;20039;-65
2022/11/18 10:44:40;;;;;;;9.27;4.83;;;;;;;;;;5041602;28;20032;-66
2022/11/18 10:47:15;;;;;;;9.50;5.10;;;;;;;;;;5052102;28;20466;-65
2022/11/18 10:49:41;;;;;;;9.47;4.40;;;;;;;;;;5051498;28;20088;-65
2022/11/18 10:52:13;;;;;;;9.27;4.60;;;;;;;;;;5048547;28;20033;-65
2022/11/18 10:54:39;;;;;;;6.83;4.63;;;;;;;;;;5047417;28;20043;-66
2022/11/18 10:57:15;;;;;;;7.40;4.43;;;;;;;;;;5048829;28;20193;-65
2022/11/18 10:59:49;;;;;;;9.60;5.00;;;;;;;;;;5078989;28;20028;-66
2022/11/18 11:02:33;;;;;;;7.63;4.13;;;;;;;;;;5070104;28;20135;-65
2022/11/18 11:05:14;;;;;;;9.97;4.40;;;;;;;;;;5064616;28;20044;-64
2022/11/18 11:07:39;;;;;;;9.05;4.55;;;;;;;;;;5045089;28;20047;-65
2022/11/18 11:10:14;;;;;;;9.27;4.03;;;;;;;;;;5061112;28;20040;-65
2022/11/18 11:12:48;;;;;;;6.13;4.40;;;;;;;;;;5060900;28;20454;-66
2022/11/18 11:15:34;;;;;;;5.40;4.03;;;;;;;;;;5063940;28;20073;-64
2022/11/18 11:20:46;;;;;;;6.37;4.13;;;;;;;;;;5063880;28;20033;-65
2022/11/18 11:23:12;;;;;;;8.00;4.70;;;;;;;;;;5053900;28;20471;-65
2022/11/18 11:25:41;;;;;;;9.23;5.30;;;;;;;;;;5055367;28;20023;-66
2022/11/18 11:28:27;;;;;;;8.57;4.90;;;;;;;;;;5064360;28;20504;-67
2022/11/18 11:31:05;;;;;;;6.53;4.23;;;;;;;;;;5019887;28;20082;-65
2022/11/18 11:33:42;;;;;;;7.67;4.67;;;;;;;;;;5048509;28;20039;-66
2022/11/18 11:36:10;;;;;;;6.93;4.70;;;;;;;;;;5062760;28;20460;-65
2022/11/18 11:38:59;;;;;;;6.00;4.57;;;;;;;;;;5047663;28;20047;-64
2022/11/18 11:41:29;;;;;;;6.20;4.40;;;;;;;;;;5055854;28;20028;-64
2022/11/18 11:44:00;;;;;;;8.03;4.43;;;;;;;;;;5077102;28;20032;-64
2022/11/18 11:46:38;;;;;;;6.60;4.40;;;;;;;;;;5044824;28;20389;-64
2022/11/18 11:49:23;;;;;;;7.13;4.50;;;;;;;;;;5060861;28;20377;-65
2022/11/18 11:52:08;;;;;;;10.83;4.60;;;;;;;;;;5063271;28;20502;-68
2022/11/18 11:54:49;;;;;;;8.40;4.47;;;;;;;;;;5071525;28;20039;-61
2022/11/18 11:57:22;;;;;;;7.82;4.65;;;;;;;;;;5058168;28;20047;-65
2022/11/18 11:59:49;;;;;;;7.90;4.40;;;;;;;;;;5048882;28;20031;-65
2022/11/18 12:02:33;;;;;;;7.43;4.50;;;;;;;;;;5053169;28;20484;-66
2022/11/18 12:05:08;;;;;;;7.40;4.53;;;;;;;;;;5050201;28;20134;-70
2022/11/18 12:07:42;;;;;;;7.10;4.30;;;;;;;;;;5087339;28;20056;-66
2022/11/18 12:10:17;;;;;;;7.50;4.17;;;;;;;;;;5063636;28;20126;-67
2022/11/18 12:12:49;;;;;;;6.87;4.07;;;;;;;;;;5047604;28;20036;-64
2022/11/18 12:15:17;;;;;;;6.03;4.20;;;;;;;;;;5052242;28;20079;-66
2022/11/18 12:17:43;;;;;;;8.50;4.40;;;;;;;;;;5048210;28;20035;-66
2022/11/18 12:20:38;;;;;;;12.73;6.40;;;;;;;;;;5066728;28;20038;-66
2022/11/18 12:23:08;;;;;;;8.23;4.67;;;;;;;;;;5040889;28;20074;-66
2022/11/18 12:25:50;;;;;;;7.37;4.70;;;;;;;;;;5050964;28;20051;-65
2022/11/18 12:28:29;;;;;;;7.50;4.77;;;;;;;;;;5047980;28;20035;-65
2022/11/18 12:31:14;;;;;;;6.77;4.40;;;;;;;;;;5057252;28;20036;-65
2022/11/18 12:33:57;;;;;;;8.47;4.20;;;;;;;;;;5054281;28;20373;-67
2022/11/18 12:36:27;;;;;;;6.17;3.93;;;;;;;;;;5056002;28;20036;-66
2022/11/18 12:38:53;;;;;;;8.90;4.50;;;;;;;;;;5067112;28;20032;-65
2022/11/18 12:44:23;;;;;;;8.70;4.70;;;;;;;;;;5085812;28;20473;-66
2022/11/18 12:46:49;;;;;;;9.40;4.50;;;;;;;;;;5048428;28;20027;-66
2022/11/18 12:49:38;;;;;;;5.80;3.93;;;;;;;;;;5066235;28;20051;-65
2022/11/18 12:52:24;;;;;;;7.67;4.10;;;;;;;;;;5025719;28;20123;-66
2022/11/18 12:54:49;;;;;;;6.33;4.20;;;;;;;;;;5050178;28;20078;-66
2022/11/18 12:57:20;;;;;;;10.20;4.00;;;;;;;;;;5065766;28;20075;-65
2022/11/18 12:59:46;;;;;;;10.25;4.80;;;;;;;;;;5064439;28;20040;-65
2022/11/18 13:02:22;;;;;;;8.23;4.27;;;;;;;;;;5049877;28;20088;-65
2022/11/18 13:05:07;;;;;;;4.63;4.00;;;;;;;;;;5049885;28;20126;-65
2022/11/18 13:10:26;;;;;;;5.80;4.10;;;;;;;;;;5061765;28;20035;-66
2022/11/18 13:12:52;;;;;;;7.32;4.57;;;;;;;;;;5051362;28;20035;-66
2022/11/18 13:18:21;;;;;;;7.17;4.20;;;;;;;;;;5065670;28;20431;-65
2022/11/18 13:20:53;;;;;;;7.60;4.13;;;;;;;;;;5065738;28;20163;-66
2022/11/18 13:26:21;;;;;;;7.37;4.80;;;;;;;;;;5068546;28;20063;-66
2022/11/18 13:28:52;;;;;;;11.00;5.30;;;;;;;;;;5072131;28;20044;-66
2022/11/18 13:31:24;;;;;;;13.07;6.70;;;;;;;;;;5067051;28;20032;-66
2022/11/18 13:33:51;;;;;;;9.50;5.90;;;;;;;;;;5069510;28;20367;-65
2022/11/18 13:36:21;;;;;;;9.17;4.80;;;;;;;;;;5052074;28;20032;-65
2022/11/18 13:39:00;;;;;;;11.57;4.82;;;;;;;;;;5051736;28;20122;-67
2022/11/18 13:41:33;;;;;;;8.07;3.90;;;;;;;;;;5051006;28;20096;-68
2022/11/18 13:44:11;;;;;;;6.38;4.13;;;;;;;;;;5060673;28;20039;-68
2022/11/18 13:46:38;;;;;;;7.10;4.60;;;;;;;;;;5069833;28;20433;-68
2022/11/18 13:49:03;;;;;;;7.07;4.40;;;;;;;;;;5051941;28;20397;-68
2022/11/18 13:51:29;;;;;;;7.47;4.60;;;;;;;;;;5053757;28;20034;-67
2022/11/18 13:53:55;;;;;;;7.30;4.67;;;;;;;;;;5052900;28;20031;-67
2022/11/18 13:56:27;;;;;;;6.97;4.27;;;;;;;;;;5047434;28;20459;-68
2022/11/18 13:58:59;;;;;;;8.40;4.77;;;;;;;;;;5047365;28;20097;-66
2022/11/18 14:01:25;;;;;;;8.63;4.47;;;;;;;;;;5064829;28;20036;-68
2022/11/18 14:04:01;;;;;;;10.50;4.43;;;;;;;;;;5049008;28;20907;-67
2022/11/18 14:06:29;;;;;;;6.17;4.20;;;;;;;;;;5096603;28;20107;-68
2022/11/18 14:09:05;;;;;;;8.20;4.47;;;;;;;;;;5057378;28;20159;-67
2022/11/18 14:11:36;;;;;;;6.50;4.30;;;;;;;;;;5064585;28;20121;-68
2022/11/18 14:14:01;;;;;;;7.45;4.32;;;;;;;;;;5077013;28;20051;-68
2022/11/18 14:16:33;;;;;;;5.47;4.07;;;;;;;;;;5047054;28;20036;-68
2022/11/18 14:18:59;;;;;;;;;;;;;;;;;;5071734;28;20036;-68
2022/11/18 14:21:32;;;;;;;7.13;4.77;;;;;;;;;;5048882;28;19914;-68
2022/11/18 14:24:01;;;;;;;7.70;4.40;;;;;;;;;;5048090;28;20042;-69
2022/11/18 14:26:36;;;;;;;9.87;4.37;;;;;;;;;;5060108;28;20036;-68
2022/11/18 14:29:13;;;;;;;8.37;4.40;;;;;;;;;;5057317;28;20082;-70
2022/11/18 14:31:39;;;;;;;7.33;4.50;;;;;;;;;;5065154;28;20043;-67
2022/11/18 14:34:24;;;;;;;9.40;5.23;;;;;;;;;;5076032;28;20450;-67
2022/11/18 14:36:50;;;;;;;9.47;4.43;;;;;;;;;;5063578;28;20032;-67
2022/11/18 14:39:29;;;;;;;11.40;5.47;;;;;;;;;;5065560;28;20028;-67
2022/11/18 14:41:56;;;;;;;9.10;4.87;;;;;;;;;;5062159;28;20032;-68
2022/11/18 14:44:23;;;;;;;11.73;5.17;;;;;;;;;;5049213;28;20127;-67
2022/11/18 14:46:54;;;;;;;7.17;4.43;;;;;;;;;;5055602;28;20560;-67
2022/11/18 14:49:21;;;;;;;5.97;3.83;;;;;;;;;;5081551;28;20072;-68
2022/11/18 14:51:47;;;;;;;6.60;4.50;;;;;;;;;;5048802;28;20457;-67
2022/11/18 14:54:13;;;;;;;7.13;4.43;;;;;;;;;;5053239;28;20554;-67
2022/11/18 14:56:39;;;;;;;6.13;4.07;;;;;;;;;;5053710;28;20487;-67
2022/11/18 14:59:05;;;;;;;7.53;4.10;;;;;;;;;;5056079;28;20035;-67
2022/11/18 15:01:30;;;;;;;9.00;4.40;;;;;;;;;;5063763;28;20032;-67
2022/11/18 15:03:56;;;;;;;6.40;4.30;;;;;;;;;;5055167;28;20030;-67
2022/11/18 15:06:23;;;;;;;10.13;4.40;;;;;;;;;;5043458;28;20032;-68
2022/11/18 15:08:50;;;;;;;6.33;4.03;;;;;;;;;;5063046;28;20056;-68
2022/11/18 15:11:17;;;;;;;8.57;4.30;;;;;;;;;;5054546;28;20032;-67
2022/11/18 15:13:43;;;;;;;7.23;4.07;;;;;;;;;;5054011;28;20479;-66
2022/11/18 15:16:16;;;;;;;5.73;4.13;;;;;;;;;;5055801;28;20452;-67
2022/11/18 15:18:42;;;;;;;8.53;4.37;;;;;;;;;;5061211;28;20086;-67